sensor_id;sensor_type;location;lat;lon;timestamp;pressure;altitude;pressure_sealevel;temperature
70831;BMP180;58451;51.550;7.208;2023-05-10T00:00:22;100031.20;;;13.00
70831;BMP180;58451;51.550;7.208;2023-05-10T00:01:55;100029.60;;;13.00
70831;BMP180;58451;51.550;7.208;2023-05-10T00:03:27;100035.00;;;13.00
70831;BMP180;58451;51.550;7.208;2023-05-10T00:04:59;100033.80;;;13.00
70831;BMP180;58451;51.550;7.208;2023-05-10T00:06:30;100030.00;;;12.96
70831;BMP180;58451;51.550;7.208;2023-05-10T00:08:03;100037.20;;;12.92
70831;BMP180;58451;51.550;7.208;2023-05-10T00:09:35;100035.80;;;12.92
70831;BMP180;58451;51.550;7.208;2023-05-10T00:11:07;100043.60;;;12.90
70831;BMP180;58451;51.550;7.208;2023-05-10T00:12:38;100039.00;;;12.90
70831;BMP180;58451;51.550;7.208;2023-05-10T00:14:11;100038.80;;;12.90
70831;BMP180;58451;51.550;7.208;2023-05-10T00:15:43;100034.80;;;12.90
70831;BMP180;58451;51.550;7.208;2023-05-10T00:17:15;100041.80;;;12.90
70831;BMP180;58451;51.550;7.208;2023-05-10T00:18:47;100033.00;;;12.90
70831;BMP180;58451;51.550;7.208;2023-05-10T00:20:18;100034.80;;;12.90
70831;BMP180;58451;51.550;7.208;2023-05-10T00:21:50;100033.20;;;12.90
70831;BMP180;58451;51.550;7.208;2023-05-10T00:23:22;100037.40;;;12.90
70831;BMP180;58451;51.550;7.208;2023-05-10T00:24:57;100037.40;;;12.90
70831;BMP180;58451;51.550;7.208;2023-05-10T00:26:29;100038.80;;;12.82
70831;BMP180;58451;51.550;7.208;2023-05-10T00:28:01;100038.80;;;12.80
70831;BMP180;58451;51.550;7.208;2023-05-10T00:29:33;100033.40;;;12.80
70831;BMP180;58451;51.550;7.208;2023-05-10T00:31:05;100038.40;;;12.80
70831;BMP180;58451;51.550;7.208;2023-05-10T00:32:37;100039.60;;;12.80
70831;BMP180;58451;51.550;7.208;2023-05-10T00:34:09;100037.40;;;12.80
70831;BMP180;58451;51.550;7.208;2023-05-10T00:35:40;100040.80;;;12.80
70831;BMP180;58451;51.550;7.208;2023-05-10T00:37:13;100037.20;;;12.80
70831;BMP180;58451;51.550;7.208;2023-05-10T00:38:45;100033.20;;;12.80
70831;BMP180;58451;51.550;7.208;2023-05-10T00:40:17;100032.00;;;12.80
70831;BMP180;58451;51.550;7.208;2023-05-10T00:41:51;100033.60;;;12.80
70831;BMP180;58451;51.550;7.208;2023-05-10T00:43:23;100036.40;;;12.80
70831;BMP180;58451;51.550;7.208;2023-05-10T00:44:55;100031.00;;;12.80
70831;BMP180;58451;51.550;7.208;2023-05-10T00:46:27;100028.80;;;12.80
70831;BMP180;58451;51.550;7.208;2023-05-10T00:48:02;100031.40;;;12.80
70831;BMP180;58451;51.550;7.208;2023-05-10T00:49:36;100033.60;;;12.80
70831;BMP180;58451;51.550;7.208;2023-05-10T00:51:08;100032.20;;;12.80
70831;BMP180;58451;51.550;7.208;2023-05-10T00:52:42;100032.60;;;12.80
70831;BMP180;58451;51.550;7.208;2023-05-10T00:54:15;100029.20;;;12.80
70831;BMP180;58451;51.550;7.208;2023-05-10T00:55:47;100035.00;;;12.80
70831;BMP180;58451;51.550;7.208;2023-05-10T00:57:19;100030.60;;;12.80
70831;BMP180;58451;51.550;7.208;2023-05-10T00:58:51;100032.20;;;12.80
70831;BMP180;58451;51.550;7.208;2023-05-10T01:00:23;100030.60;;;12.80
70831;BMP180;58451;51.550;7.208;2023-05-10T01:01:55;100034.60;;;12.80
70831;BMP180;58451;51.550;7.208;2023-05-10T01:03:29;100032.60;;;12.80
70831;BMP180;58451;51.550;7.208;2023-05-10T01:05:03;100030.80;;;12.80
70831;BMP180;58451;51.550;7.208;2023-05-10T01:06:35;100028.80;;;12.80
70831;BMP180;58451;51.550;7.208;2023-05-10T01:08:07;100030.80;;;12.80
70831;BMP180;58451;51.550;7.208;2023-05-10T01:09:40;100031.00;;;12.80
70831;BMP180;58451;51.550;7.208;2023-05-10T01:11:12;100028.80;;;12.80
70831;BMP180;58451;51.550;7.208;2023-05-10T01:12:46;100029.40;;;12.80
70831;BMP180;58451;51.550;7.208;2023-05-10T01:14:19;100034.40;;;12.80
70831;BMP180;58451;51.550;7.208;2023-05-10T01:15:52;100034.20;;;12.80
70831;BMP180;58451;51.550;7.208;2023-05-10T01:17:24;100035.60;;;12.80
70831;BMP180;58451;51.550;7.208;2023-05-10T01:18:57;100034.60;;;12.80
70831;BMP180;58451;51.550;7.208;2023-05-10T01:20:39;100038.60;;;12.80
70831;BMP180;58451;51.550;7.208;2023-05-10T01:24:52;100037.20;;;12.70
70831;BMP180;58451;51.550;7.208;2023-05-10T01:27:34;100036.60;;;12.70
70831;BMP180;58451;51.550;7.208;2023-05-10T01:35:32;100047.60;;;12.60
70831;BMP180;58451;51.550;7.208;2023-05-10T01:37:15;100050.20;;;12.60
70831;BMP180;58451;51.550;7.208;2023-05-10T01:40:42;100051.80;;;12.60
70831;BMP180;58451;51.550;7.208;2023-05-10T01:42:21;100052.80;;;12.60
70831;BMP180;58451;51.550;7.208;2023-05-10T01:44:32;100058.20;;;12.60
70831;BMP180;58451;51.550;7.208;2023-05-10T01:46:17;100059.40;;;12.60
70831;BMP180;58451;51.550;7.208;2023-05-10T01:48:11;100057.00;;;12.60
70831;BMP180;58451;51.550;7.208;2023-05-10T01:49:50;100066.40;;;12.60
70831;BMP180;58451;51.550;7.208;2023-05-10T01:51:27;100061.80;;;12.60
70831;BMP180;58451;51.550;7.208;2023-05-10T01:53:02;100062.40;;;12.60
70831;BMP180;58451;51.550;7.208;2023-05-10T01:54:38;100059.60;;;12.60
70831;BMP180;58451;51.550;7.208;2023-05-10T01:56:15;100063.20;;;12.52
70831;BMP180;58451;51.550;7.208;2023-05-10T01:57:54;100060.40;;;12.50
70831;BMP180;58451;51.550;7.208;2023-05-10T01:59:34;100065.20;;;12.50
70831;BMP180;58451;51.550;7.208;2023-05-10T02:01:12;100061.20;;;12.50
70831;BMP180;58451;51.550;7.208;2023-05-10T02:02:47;100064.00;;;12.50
70831;BMP180;58451;51.550;7.208;2023-05-10T02:04:23;100065.40;;;12.50
70831;BMP180;58451;51.550;7.208;2023-05-10T02:05:57;100062.20;;;12.50
70831;BMP180;58451;51.550;7.208;2023-05-10T02:07:31;100066.40;;;12.50
70831;BMP180;58451;51.550;7.208;2023-05-10T02:09:07;100064.60;;;12.50
70831;BMP180;58451;51.550;7.208;2023-05-10T02:10:40;100064.80;;;12.50
70831;BMP180;58451;51.550;7.208;2023-05-10T02:12:14;100065.60;;;12.50
70831;BMP180;58451;51.550;7.208;2023-05-10T02:13:49;100066.20;;;12.50
70831;BMP180;58451;51.550;7.208;2023-05-10T02:15:23;100077.60;;;12.50
70831;BMP180;58451;51.550;7.208;2023-05-10T02:16:58;100074.40;;;12.50
70831;BMP180;58451;51.550;7.208;2023-05-10T02:18:33;100075.20;;;12.50
70831;BMP180;58451;51.550;7.208;2023-05-10T02:20:09;100079.20;;;12.50
70831;BMP180;58451;51.550;7.208;2023-05-10T02:21:43;100077.60;;;12.50
70831;BMP180;58451;51.550;7.208;2023-05-10T02:23:17;100080.40;;;12.50
70831;BMP180;58451;51.550;7.208;2023-05-10T02:24:50;100082.00;;;12.42
70831;BMP180;58451;51.550;7.208;2023-05-10T02:26:24;100079.20;;;12.40
70831;BMP180;58451;51.550;7.208;2023-05-10T02:27:57;100079.60;;;12.40
70831;BMP180;58451;51.550;7.208;2023-05-10T02:29:33;100078.40;;;12.40
70831;BMP180;58451;51.550;7.208;2023-05-10T02:31:06;100081.80;;;12.40
70831;BMP180;58451;51.550;7.208;2023-05-10T02:32:39;100082.00;;;12.40
70831;BMP180;58451;51.550;7.208;2023-05-10T02:34:13;100082.60;;;12.40
70831;BMP180;58451;51.550;7.208;2023-05-10T02:35:46;100083.60;;;12.40
70831;BMP180;58451;51.550;7.208;2023-05-10T02:37:20;100086.40;;;12.40
70831;BMP180;58451;51.550;7.208;2023-05-10T02:38:53;100083.40;;;12.40
70831;BMP180;58451;51.550;7.208;2023-05-10T02:40:27;100087.40;;;12.40
70831;BMP180;58451;51.550;7.208;2023-05-10T02:42:01;100087.40;;;12.40
70831;BMP180;58451;51.550;7.208;2023-05-10T02:43:35;100086.80;;;12.40
70831;BMP180;58451;51.550;7.208;2023-05-10T02:45:12;100083.80;;;12.40
70831;BMP180;58451;51.550;7.208;2023-05-10T02:46:46;100083.20;;;12.40
70831;BMP180;58451;51.550;7.208;2023-05-10T02:48:19;100088.00;;;12.40
70831;BMP180;58451;51.550;7.208;2023-05-10T02:49:52;100086.00;;;12.38
70831;BMP180;58451;51.550;7.208;2023-05-10T02:51:28;100082.40;;;12.36
70831;BMP180;58451;51.550;7.208;2023-05-10T02:53:10;100083.80;;;12.32
70831;BMP180;58451;51.550;7.208;2023-05-10T02:54:50;100086.80;;;12.30
70831;BMP180;58451;51.550;7.208;2023-05-10T02:56:37;100087.40;;;12.30
70831;BMP180;58451;51.550;7.208;2023-05-10T02:58:11;100087.00;;;12.30
70831;BMP180;58451;51.550;7.208;2023-05-10T02:59:43;100088.80;;;12.30
70831;BMP180;58451;51.550;7.208;2023-05-10T03:01:16;100088.20;;;12.30
70831;BMP180;58451;51.550;7.208;2023-05-10T03:02:48;100085.80;;;12.30
70831;BMP180;58451;51.550;7.208;2023-05-10T03:04:20;100087.40;;;12.30
70831;BMP180;58451;51.550;7.208;2023-05-10T03:05:52;100087.80;;;12.30
70831;BMP180;58451;51.550;7.208;2023-05-10T03:07:27;100083.00;;;12.28
70831;BMP180;58451;51.550;7.208;2023-05-10T03:08:59;100087.00;;;12.30
70831;BMP180;58451;51.550;7.208;2023-05-10T03:10:33;100087.00;;;12.28
70831;BMP180;58451;51.550;7.208;2023-05-10T03:15:47;100087.80;;;12.30
70831;BMP180;58451;51.550;7.208;2023-05-10T03:17:30;100091.80;;;12.26
70831;BMP180;58451;51.550;7.208;2023-05-10T03:19:17;100093.20;;;12.28
70831;BMP180;58451;51.550;7.208;2023-05-10T03:21:03;100093.20;;;12.22
70831;BMP180;58451;51.550;7.208;2023-05-10T03:22:47;100096.40;;;12.26
70831;BMP180;58451;51.550;7.208;2023-05-10T03:24:26;100093.80;;;12.30
70831;BMP180;58451;51.550;7.208;2023-05-10T03:26:00;100097.80;;;12.30
70831;BMP180;58451;51.550;7.208;2023-05-10T03:27:36;100098.40;;;12.30
70831;BMP180;58451;51.550;7.208;2023-05-10T03:29:12;100101.80;;;12.30
70831;BMP180;58451;51.550;7.208;2023-05-10T03:30:46;100099.20;;;12.30
70831;BMP180;58451;51.550;7.208;2023-05-10T03:32:18;100097.40;;;12.30
70831;BMP180;58451;51.550;7.208;2023-05-10T03:33:52;100100.40;;;12.30
70831;BMP180;58451;51.550;7.208;2023-05-10T03:35:29;100100.60;;;12.30
70831;BMP180;58451;51.550;7.208;2023-05-10T03:37:00;100101.40;;;12.30
70831;BMP180;58451;51.550;7.208;2023-05-10T03:38:34;100105.60;;;12.30
70831;BMP180;58451;51.550;7.208;2023-05-10T03:40:07;100106.40;;;12.30
70831;BMP180;58451;51.550;7.208;2023-05-10T03:41:41;100106.00;;;12.30
70831;BMP180;58451;51.550;7.208;2023-05-10T03:43:13;100107.00;;;12.30
70831;BMP180;58451;51.550;7.208;2023-05-10T03:44:44;100108.80;;;12.30
70831;BMP180;58451;51.550;7.208;2023-05-10T03:46:16;100109.20;;;12.30
70831;BMP180;58451;51.550;7.208;2023-05-10T03:47:48;100108.40;;;12.30
70831;BMP180;58451;51.550;7.208;2023-05-10T03:49:20;100109.60;;;12.30
70831;BMP180;58451;51.550;7.208;2023-05-10T03:50:52;100113.60;;;12.30
70831;BMP180;58451;51.550;7.208;2023-05-10T03:52:24;100106.80;;;12.32
70831;BMP180;58451;51.550;7.208;2023-05-10T03:53:56;100112.60;;;12.40
70831;BMP180;58451;51.550;7.208;2023-05-10T03:55:28;100115.40;;;12.40
70831;BMP180;58451;51.550;7.208;2023-05-10T03:57:00;100116.00;;;12.40
70831;BMP180;58451;51.550;7.208;2023-05-10T03:58:34;100115.00;;;12.40
70831;BMP180;58451;51.550;7.208;2023-05-10T04:00:07;100119.40;;;12.40
70831;BMP180;58451;51.550;7.208;2023-05-10T04:01:45;100114.80;;;12.40
70831;BMP180;58451;51.550;7.208;2023-05-10T04:03:17;100116.20;;;12.42
70831;BMP180;58451;51.550;7.208;2023-05-10T04:04:50;100115.80;;;12.46
70831;BMP180;58451;51.550;7.208;2023-05-10T04:06:22;100118.40;;;12.50
70831;BMP180;58451;51.550;7.208;2023-05-10T04:07:55;100119.00;;;12.50
70831;BMP180;58451;51.550;7.208;2023-05-10T04:09:26;100117.20;;;12.50
70831;BMP180;58451;51.550;7.208;2023-05-10T04:11:09;100120.00;;;12.48
70831;BMP180;58451;51.550;7.208;2023-05-10T04:12:41;100117.80;;;12.50
70831;BMP180;58451;51.550;7.208;2023-05-10T04:14:13;100114.40;;;12.50
70831;BMP180;58451;51.550;7.208;2023-05-10T04:15:44;100119.20;;;12.50
70831;BMP180;58451;51.550;7.208;2023-05-10T04:17:16;100117.60;;;12.50
70831;BMP180;58451;51.550;7.208;2023-05-10T04:18:48;100117.00;;;12.50
70831;BMP180;58451;51.550;7.208;2023-05-10T04:20:20;100118.60;;;12.50
70831;BMP180;58451;51.550;7.208;2023-05-10T04:21:52;100121.00;;;12.50
70831;BMP180;58451;51.550;7.208;2023-05-10T04:23:25;100123.00;;;12.48
70831;BMP180;58451;51.550;7.208;2023-05-10T04:24:57;100123.00;;;12.50
70831;BMP180;58451;51.550;7.208;2023-05-10T04:26:29;100122.80;;;12.50
70831;BMP180;58451;51.550;7.208;2023-05-10T04:28:00;100124.80;;;12.50
70831;BMP180;58451;51.550;7.208;2023-05-10T04:29:32;100122.80;;;12.50
70831;BMP180;58451;51.550;7.208;2023-05-10T04:31:07;100118.80;;;12.50
70831;BMP180;58451;51.550;7.208;2023-05-10T04:32:39;100120.60;;;12.50
70831;BMP180;58451;51.550;7.208;2023-05-10T04:34:11;100122.40;;;12.50
70831;BMP180;58451;51.550;7.208;2023-05-10T04:35:43;100122.60;;;12.50
70831;BMP180;58451;51.550;7.208;2023-05-10T04:37:16;100125.20;;;12.50
70831;BMP180;58451;51.550;7.208;2023-05-10T04:38:48;100120.60;;;12.50
70831;BMP180;58451;51.550;7.208;2023-05-10T04:40:20;100122.20;;;12.50
70831;BMP180;58451;51.550;7.208;2023-05-10T04:41:52;100125.20;;;12.50
70831;BMP180;58451;51.550;7.208;2023-05-10T04:43:24;100130.60;;;12.52
70831;BMP180;58451;51.550;7.208;2023-05-10T04:44:56;100125.80;;;12.52
70831;BMP180;58451;51.550;7.208;2023-05-10T04:46:28;100133.00;;;12.58
70831;BMP180;58451;51.550;7.208;2023-05-10T04:47:59;100132.00;;;12.60
70831;BMP180;58451;51.550;7.208;2023-05-10T04:49:31;100131.40;;;12.60
70831;BMP180;58451;51.550;7.208;2023-05-10T04:51:03;100130.40;;;12.60
70831;BMP180;58451;51.550;7.208;2023-05-10T04:52:35;100134.00;;;12.60
70831;BMP180;58451;51.550;7.208;2023-05-10T04:54:08;100134.80;;;12.60
70831;BMP180;58451;51.550;7.208;2023-05-10T04:55:39;100138.40;;;12.60
70831;BMP180;58451;51.550;7.208;2023-05-10T04:57:12;100139.20;;;12.60
70831;BMP180;58451;51.550;7.208;2023-05-10T04:58:43;100135.80;;;12.60
70831;BMP180;58451;51.550;7.208;2023-05-10T05:00:16;100145.00;;;12.60
70831;BMP180;58451;51.550;7.208;2023-05-10T05:01:48;100145.60;;;12.60
70831;BMP180;58451;51.550;7.208;2023-05-10T05:03:20;100144.80;;;12.60
70831;BMP180;58451;51.550;7.208;2023-05-10T05:04:52;100146.80;;;12.60
70831;BMP180;58451;51.550;7.208;2023-05-10T05:06:24;100147.80;;;12.60
70831;BMP180;58451;51.550;7.208;2023-05-10T05:07:56;100146.40;;;12.60
70831;BMP180;58451;51.550;7.208;2023-05-10T05:09:28;100146.20;;;12.60
70831;BMP180;58451;51.550;7.208;2023-05-10T05:11:00;100146.80;;;12.70
70831;BMP180;58451;51.550;7.208;2023-05-10T05:12:32;100147.40;;;12.70
70831;BMP180;58451;51.550;7.208;2023-05-10T05:14:03;100145.60;;;12.70
70831;BMP180;58451;51.550;7.208;2023-05-10T05:15:35;100149.80;;;12.70
70831;BMP180;58451;51.550;7.208;2023-05-10T05:17:07;100153.60;;;12.70
70831;BMP180;58451;51.550;7.208;2023-05-10T05:18:39;100152.40;;;12.70
70831;BMP180;58451;51.550;7.208;2023-05-10T05:20:12;100150.80;;;12.70
70831;BMP180;58451;51.550;7.208;2023-05-10T05:21:44;100150.60;;;12.70
70831;BMP180;58451;51.550;7.208;2023-05-10T05:23:16;100155.60;;;12.70
70831;BMP180;58451;51.550;7.208;2023-05-10T05:24:48;100156.80;;;12.70
70831;BMP180;58451;51.550;7.208;2023-05-10T05:26:20;100157.80;;;12.76
70831;BMP180;58451;51.550;7.208;2023-05-10T05:27:52;100156.60;;;12.80
70831;BMP180;58451;51.550;7.208;2023-05-10T05:29:24;100154.00;;;12.80
70831;BMP180;58451;51.550;7.208;2023-05-10T05:30:56;100157.60;;;12.80
70831;BMP180;58451;51.550;7.208;2023-05-10T05:32:28;100150.80;;;12.80
70831;BMP180;58451;51.550;7.208;2023-05-10T05:34:00;100152.40;;;12.82
70831;BMP180;58451;51.550;7.208;2023-05-10T05:35:33;100150.20;;;12.90
70831;BMP180;58451;51.550;7.208;2023-05-10T05:37:06;100157.20;;;12.90
70831;BMP180;58451;51.550;7.208;2023-05-10T05:38:38;100162.60;;;12.90
70831;BMP180;58451;51.550;7.208;2023-05-10T05:40:13;100164.80;;;12.90
70831;BMP180;58451;51.550;7.208;2023-05-10T05:41:46;100165.60;;;12.90
70831;BMP180;58451;51.550;7.208;2023-05-10T05:43:19;100161.40;;;12.90
70831;BMP180;58451;51.550;7.208;2023-05-10T05:44:50;100158.20;;;13.00
70831;BMP180;58451;51.550;7.208;2023-05-10T05:46:22;100162.40;;;13.00
70831;BMP180;58451;51.550;7.208;2023-05-10T05:47:54;100166.40;;;13.00
70831;BMP180;58451;51.550;7.208;2023-05-10T05:49:26;100165.20;;;13.08
70831;BMP180;58451;51.550;7.208;2023-05-10T05:50:58;100162.80;;;13.10
70831;BMP180;58451;51.550;7.208;2023-05-10T05:52:30;100169.60;;;13.10
70831;BMP180;58451;51.550;7.208;2023-05-10T05:54:02;100171.00;;;13.10
70831;BMP180;58451;51.550;7.208;2023-05-10T05:55:35;100171.20;;;13.10
70831;BMP180;58451;51.550;7.208;2023-05-10T05:57:07;100172.60;;;13.10
70831;BMP180;58451;51.550;7.208;2023-05-10T05:58:39;100174.40;;;13.10
70831;BMP180;58451;51.550;7.208;2023-05-10T06:00:11;100180.60;;;13.10
70831;BMP180;58451;51.550;7.208;2023-05-10T06:01:43;100175.60;;;13.10
70831;BMP180;58451;51.550;7.208;2023-05-10T06:03:16;100173.00;;;13.10
70831;BMP180;58451;51.550;7.208;2023-05-10T06:04:48;100180.40;;;13.10
70831;BMP180;58451;51.550;7.208;2023-05-10T06:06:19;100177.40;;;13.10
70831;BMP180;58451;51.550;7.208;2023-05-10T06:07:51;100183.60;;;13.10
70831;BMP180;58451;51.550;7.208;2023-05-10T06:09:23;100184.60;;;13.10
70831;BMP180;58451;51.550;7.208;2023-05-10T06:10:56;100188.80;;;13.10
70831;BMP180;58451;51.550;7.208;2023-05-10T06:12:27;100193.80;;;13.10
70831;BMP180;58451;51.550;7.208;2023-05-10T06:14:00;100184.40;;;13.10
70831;BMP180;58451;51.550;7.208;2023-05-10T06:15:32;100190.40;;;13.20
70831;BMP180;58451;51.550;7.208;2023-05-10T06:17:04;100190.40;;;13.20
70831;BMP180;58451;51.550;7.208;2023-05-10T06:18:36;100193.00;;;13.20
70831;BMP180;58451;51.550;7.208;2023-05-10T06:20:09;100197.60;;;13.30
70831;BMP180;58451;51.550;7.208;2023-05-10T06:21:41;100198.40;;;13.30
70831;BMP180;58451;51.550;7.208;2023-05-10T06:23:13;100199.60;;;13.40
70831;BMP180;58451;51.550;7.208;2023-05-10T06:24:45;100201.80;;;13.40
70831;BMP180;58451;51.550;7.208;2023-05-10T06:26:16;100209.00;;;13.40
70831;BMP180;58451;51.550;7.208;2023-05-10T06:27:48;100210.60;;;13.40
70831;BMP180;58451;51.550;7.208;2023-05-10T06:29:24;100214.40;;;13.50
70831;BMP180;58451;51.550;7.208;2023-05-10T06:30:56;100213.60;;;13.50
70831;BMP180;58451;51.550;7.208;2023-05-10T06:32:28;100217.00;;;13.50
70831;BMP180;58451;51.550;7.208;2023-05-10T06:34:00;100215.60;;;13.52
70831;BMP180;58451;51.550;7.208;2023-05-10T06:35:32;100214.40;;;13.60
70831;BMP180;58451;51.550;7.208;2023-05-10T06:37:04;100212.20;;;13.70
70831;BMP180;58451;51.550;7.208;2023-05-10T06:38:36;100209.60;;;13.80
70831;BMP180;58451;51.550;7.208;2023-05-10T06:40:09;100209.60;;;13.90
70831;BMP180;58451;51.550;7.208;2023-05-10T06:41:41;100212.40;;;14.00
70831;BMP180;58451;51.550;7.208;2023-05-10T06:43:13;100218.60;;;14.10
70831;BMP180;58451;51.550;7.208;2023-05-10T06:44:45;100221.80;;;14.06
70831;BMP180;58451;51.550;7.208;2023-05-10T06:46:17;100221.60;;;14.00
70831;BMP180;58451;51.550;7.208;2023-05-10T06:47:49;100228.00;;;14.00
70831;BMP180;58451;51.550;7.208;2023-05-10T06:49:21;100227.00;;;14.00
70831;BMP180;58451;51.550;7.208;2023-05-10T06:50:53;100227.80;;;14.00
70831;BMP180;58451;51.550;7.208;2023-05-10T06:52:25;100228.40;;;14.00
70831;BMP180;58451;51.550;7.208;2023-05-10T06:53:57;100224.60;;;13.98
70831;BMP180;58451;51.550;7.208;2023-05-10T06:55:28;100221.20;;;14.00
70831;BMP180;58451;51.550;7.208;2023-05-10T06:57:00;100225.40;;;14.00
70831;BMP180;58451;51.550;7.208;2023-05-10T06:58:43;100230.80;;;14.00
70831;BMP180;58451;51.550;7.208;2023-05-10T07:00:16;100231.20;;;14.00
70831;BMP180;58451;51.550;7.208;2023-05-10T07:01:49;100232.60;;;14.00
70831;BMP180;58451;51.550;7.208;2023-05-10T07:03:20;100236.80;;;14.00
70831;BMP180;58451;51.550;7.208;2023-05-10T07:04:52;100233.80;;;14.00
70831;BMP180;58451;51.550;7.208;2023-05-10T07:06:24;100235.60;;;14.00
70831;BMP180;58451;51.550;7.208;2023-05-10T07:08:04;100235.80;;;14.00
70831;BMP180;58451;51.550;7.208;2023-05-10T07:09:36;100229.80;;;14.04
70831;BMP180;58451;51.550;7.208;2023-05-10T07:11:07;100232.20;;;14.10
70831;BMP180;58451;51.550;7.208;2023-05-10T07:12:39;100230.00;;;14.10
70831;BMP180;58451;51.550;7.208;2023-05-10T07:14:11;100230.40;;;14.20
70831;BMP180;58451;51.550;7.208;2023-05-10T07:15:43;100232.00;;;14.20
70831;BMP180;58451;51.550;7.208;2023-05-10T07:17:16;100234.60;;;14.20
70831;BMP180;58451;51.550;7.208;2023-05-10T07:18:48;100238.40;;;14.20
70831;BMP180;58451;51.550;7.208;2023-05-10T07:20:19;100239.20;;;14.20
70831;BMP180;58451;51.550;7.208;2023-05-10T07:21:51;100240.20;;;14.28
70831;BMP180;58451;51.550;7.208;2023-05-10T07:23:23;100238.60;;;14.40
70831;BMP180;58451;51.550;7.208;2023-05-10T07:24:55;100235.20;;;14.50
70831;BMP180;58451;51.550;7.208;2023-05-10T07:26:27;100231.80;;;14.70
70831;BMP180;58451;51.550;7.208;2023-05-10T07:27:58;100233.40;;;14.82
70831;BMP180;58451;51.550;7.208;2023-05-10T07:29:30;100239.20;;;15.00
70831;BMP180;58451;51.550;7.208;2023-05-10T07:31:02;100234.60;;;15.00
70831;BMP180;58451;51.550;7.208;2023-05-10T07:32:34;100234.80;;;15.10
70831;BMP180;58451;51.550;7.208;2023-05-10T07:34:06;100234.20;;;15.26
70831;BMP180;58451;51.550;7.208;2023-05-10T07:35:38;100237.60;;;15.40
70831;BMP180;58451;51.550;7.208;2023-05-10T07:37:10;100235.60;;;15.46
70831;BMP180;58451;51.550;7.208;2023-05-10T07:38:42;100237.80;;;15.50
70831;BMP180;58451;51.550;7.208;2023-05-10T07:40:13;100234.20;;;15.56
70831;BMP180;58451;51.550;7.208;2023-05-10T07:41:48;100234.20;;;15.64
70831;BMP180;58451;51.550;7.208;2023-05-10T07:43:20;100238.40;;;15.80
70831;BMP180;58451;51.550;7.208;2023-05-10T07:44:51;100236.00;;;15.88
70831;BMP180;58451;51.550;7.208;2023-05-10T07:46:23;100237.00;;;15.96
70831;BMP180;58451;51.550;7.208;2023-05-10T07:47:55;100232.40;;;16.00
70831;BMP180;58451;51.550;7.208;2023-05-10T07:49:27;100234.60;;;16.10
70831;BMP180;58451;51.550;7.208;2023-05-10T07:50:59;100232.80;;;16.10
70831;BMP180;58451;51.550;7.208;2023-05-10T07:52:31;100232.60;;;16.20
70831;BMP180;58451;51.550;7.208;2023-05-10T07:54:02;100235.20;;;16.30
70831;BMP180;58451;51.550;7.208;2023-05-10T07:55:34;100235.40;;;16.42
70831;BMP180;58451;51.550;7.208;2023-05-10T07:57:06;100236.00;;;16.50
70831;BMP180;58451;51.550;7.208;2023-05-10T07:58:38;100233.20;;;16.60
70831;BMP180;58451;51.550;7.208;2023-05-10T08:00:12;100237.20;;;16.72
70831;BMP180;58451;51.550;7.208;2023-05-10T08:01:45;100243.00;;;16.98
70831;BMP180;58451;51.550;7.208;2023-05-10T08:03:17;100234.60;;;17.10
70831;BMP180;58451;51.550;7.208;2023-05-10T08:04:49;100242.00;;;17.10
70831;BMP180;58451;51.550;7.208;2023-05-10T08:06:21;100245.60;;;17.00
70831;BMP180;58451;51.550;7.208;2023-05-10T08:07:53;100244.60;;;17.10
70831;BMP180;58451;51.550;7.208;2023-05-10T08:09:25;100243.00;;;17.04
70831;BMP180;58451;51.550;7.208;2023-05-10T08:10:57;100245.60;;;17.00
70831;BMP180;58451;51.550;7.208;2023-05-10T08:12:29;100250.40;;;17.04
70831;BMP180;58451;51.550;7.208;2023-05-10T08:14:01;100250.00;;;17.00
70831;BMP180;58451;51.550;7.208;2023-05-10T08:15:33;100255.40;;;16.90
70831;BMP180;58451;51.550;7.208;2023-05-10T08:17:05;100257.40;;;16.90
70831;BMP180;58451;51.550;7.208;2023-05-10T08:18:38;100261.60;;;16.90
70831;BMP180;58451;51.550;7.208;2023-05-10T08:20:10;100267.40;;;16.92
70831;BMP180;58451;51.550;7.208;2023-05-10T08:21:45;100264.40;;;16.90
70831;BMP180;58451;51.550;7.208;2023-05-10T08:23:17;100269.20;;;16.90
70831;BMP180;58451;51.550;7.208;2023-05-10T08:24:49;100269.20;;;16.80
70831;BMP180;58451;51.550;7.208;2023-05-10T08:26:21;100269.80;;;16.80
70831;BMP180;58451;51.550;7.208;2023-05-10T08:27:53;100274.40;;;16.80
70831;BMP180;58451;51.550;7.208;2023-05-10T08:29:24;100270.40;;;16.70
70831;BMP180;58451;51.550;7.208;2023-05-10T08:30:58;100272.80;;;16.70
70831;BMP180;58451;51.550;7.208;2023-05-10T08:32:31;100273.00;;;16.70
70831;BMP180;58451;51.550;7.208;2023-05-10T08:34:02;100273.40;;;16.74
70831;BMP180;58451;51.550;7.208;2023-05-10T08:35:34;100282.00;;;16.72
70831;BMP180;58451;51.550;7.208;2023-05-10T08:37:07;100286.80;;;16.60
70831;BMP180;58451;51.550;7.208;2023-05-10T08:38:38;100290.40;;;16.36
70831;BMP180;58451;51.550;7.208;2023-05-10T08:40:11;100286.80;;;16.28
70831;BMP180;58451;51.550;7.208;2023-05-10T08:41:46;100290.80;;;16.20
70831;BMP180;58451;51.550;7.208;2023-05-10T08:43:19;100292.60;;;16.10
70831;BMP180;58451;51.550;7.208;2023-05-10T08:44:53;100293.60;;;15.88
70831;BMP180;58451;51.550;7.208;2023-05-10T08:46:27;100291.40;;;15.70
70831;BMP180;58451;51.550;7.208;2023-05-10T08:48:02;100295.00;;;15.70
70831;BMP180;58451;51.550;7.208;2023-05-10T08:49:37;100298.20;;;15.70
70831;BMP180;58451;51.550;7.208;2023-05-10T08:51:13;100303.40;;;15.72
70831;BMP180;58451;51.550;7.208;2023-05-10T08:52:48;100301.60;;;15.80
70831;BMP180;58451;51.550;7.208;2023-05-10T08:54:23;100299.00;;;15.86
70831;BMP180;58451;51.550;7.208;2023-05-10T08:55:56;100299.60;;;15.84
70831;BMP180;58451;51.550;7.208;2023-05-10T08:57:28;100298.40;;;15.90
70831;BMP180;58451;51.550;7.208;2023-05-10T08:59:00;100304.20;;;16.00
70831;BMP180;58451;51.550;7.208;2023-05-10T09:00:33;100304.20;;;16.06
70831;BMP180;58451;51.550;7.208;2023-05-10T09:02:06;100310.60;;;16.04
70831;BMP180;58451;51.550;7.208;2023-05-10T09:03:39;100307.40;;;16.00
70831;BMP180;58451;51.550;7.208;2023-05-10T09:05:12;100312.80;;;16.00